Time;durP1;ratioP1;P1;durP2;ratioP2;P2;SDS_P1;SDS_P2;PMS_P1;PMS_P2;Temp;Humidity;BMP_temperature;BMP_pressure;BME280_temperature;BME280_humidity;BME280_pressure;Samples;Min_cycle;Max_cycle;Signal;HPM_P1;HPM_P2
2022/09/05 03:46:11;;;;;;;1999.90;999.90;;;;;;;;;;5922442;23;20797;-68
2022/09/05 03:49:07;;;;;;;1999.90;999.90;;;;;;;;;;5013003;28;20214;-68
2022/09/05 03:51:58;;;;;;;1999.90;999.90;;;;;;;;;;5013278;28;20265;-69
2022/09/05 03:54:57;;;;;;;1999.90;999.90;;;;;;;;;;4993477;28;20247;-64
2022/09/05 03:57:56;;;;;;;1999.90;999.90;;;;;;;;;;4993163;28;20223;-66
2022/09/05 04:00:42;;;;;;;1999.90;999.90;;;;;;;;;;4993069;28;20685;-68
2022/09/05 04:03:31;;;;;;;1999.90;999.90;;;;;;;;;;4993634;28;20199;-68
2022/09/05 04:06:18;;;;;;;1999.90;999.90;;;;;;;;;;5009785;28;20357;-67
2022/09/05 04:09:06;;;;;;;1999.90;999.90;;;;;;;;;;5004087;28;20218;-68
2022/09/05 04:11:53;;;;;;;1999.90;999.90;;;;;;;;;;5000105;28;20378;-67
2022/09/05 04:14:40;;;;;;;1999.90;999.90;;;;;;;;;;4992420;28;20227;-66
2022/09/05 04:17:30;;;;;;;1999.90;999.90;;;;;;;;;;4992630;28;20231;-67
2022/09/05 04:20:22;;;;;;;1999.90;999.90;;;;;;;;;;4992722;28;20199;-68
2022/09/05 04:23:24;;;;;;;1999.90;999.90;;;;;;;;;;4992447;28;20745;-67
2022/09/05 04:26:18;;;;;;;1999.90;999.90;;;;;;;;;;4991649;28;20537;-67
2022/09/05 04:29:09;;;;;;;1999.90;999.90;;;;;;;;;;5008947;28;20736;-68
2022/09/05 04:31:57;;;;;;;1999.90;999.90;;;;;;;;;;5006707;28;20209;-67
2022/09/05 04:34:46;;;;;;;1999.90;999.90;;;;;;;;;;4996927;28;20231;-69
2022/09/05 04:37:36;;;;;;;1999.90;999.90;;;;;;;;;;5001994;28;20265;-68
2022/09/05 04:40:45;;;;;;;1999.90;999.90;;;;;;;;;;5012577;28;20199;-67
2022/09/05 04:43:33;;;;;;;1999.90;999.90;;;;;;;;;;5000752;28;20215;-68
2022/09/05 04:46:21;;;;;;;1999.90;999.90;;;;;;;;;;5010936;28;20423;-67
2022/09/05 04:49:07;;;;;;;1999.90;999.90;;;;;;;;;;5010877;28;20232;-67
2022/09/05 04:52:07;;;;;;;1999.90;999.90;;;;;;;;;;4999902;28;20261;-68
2022/09/05 04:54:56;;;;;;;1999.90;999.90;;;;;;;;;;4997286;28;20235;-68
2022/09/05 04:57:46;;;;;;;1999.90;999.90;;;;;;;;;;4994856;28;20234;-68
2022/09/05 05:00:34;;;;;;;1999.90;999.90;;;;;;;;;;5010558;28;20207;-68
2022/09/05 05:03:22;;;;;;;1999.90;999.90;;;;;;;;;;5010314;28;20701;-68
2022/09/05 05:06:09;;;;;;;1999.90;999.90;;;;;;;;;;5010672;28;20230;-67
2022/09/05 05:08:57;;;;;;;1999.90;999.90;;;;;;;;;;5011362;28;20217;-67
2022/09/05 05:11:47;;;;;;;1999.90;999.90;;;;;;;;;;5007831;28;20333;-67
2022/09/05 05:14:36;;;;;;;1999.90;999.90;;;;;;;;;;4996306;28;20592;-67
2022/09/05 05:17:29;;;;;;;1999.90;999.90;;;;;;;;;;4993560;28;20347;-68
2022/09/05 05:20:20;;;;;;;1999.90;999.90;;;;;;;;;;4996430;28;20614;-67
2022/09/05 05:23:07;;;;;;;1999.90;999.90;;;;;;;;;;5002376;28;20258;-67
2022/09/05 05:25:54;;;;;;;1999.90;999.90;;;;;;;;;;5006491;28;20811;-68
2022/09/05 05:28:47;;;;;;;1999.90;999.90;;;;;;;;;;5010077;28;20207;-67
2022/09/05 05:31:35;;;;;;;1999.90;999.90;;;;;;;;;;5005078;28;20336;-69
2022/09/05 05:34:21;;;;;;;1999.90;999.90;;;;;;;;;;5003710;28;21049;-67
2022/09/05 05:37:09;;;;;;;1999.90;999.90;;;;;;;;;;5002895;28;20362;-67
2022/09/05 05:40:00;;;;;;;1999.90;999.90;;;;;;;;;;5006738;28;20597;-68
2022/09/05 05:42:45;;;;;;;1999.90;999.90;;;;;;;;;;5011815;28;20207;-67
2022/09/05 05:45:32;;;;;;;1999.90;999.90;;;;;;;;;;5009118;28;20435;-67
2022/09/05 05:48:29;;;;;;;1999.90;999.90;;;;;;;;;;5003935;28;20211;-67
2022/09/05 05:51:26;;;;;;;1999.90;999.90;;;;;;;;;;5002602;28;20306;-68
2022/09/05 05:54:17;;;;;;;1999.90;999.90;;;;;;;;;;5010321;28;20242;-68
2022/09/05 05:57:22;;;;;;;1999.90;999.90;;;;;;;;;;5009554;28;20229;-67
2022/09/05 06:00:18;;;;;;;1999.90;999.90;;;;;;;;;;5010800;28;20203;-68
2022/09/05 06:03:15;;;;;;;1999.90;999.90;;;;;;;;;;5007966;28;20218;-68
2022/09/05 06:06:11;;;;;;;1999.90;999.90;;;;;;;;;;5002422;28;20219;-68
2022/09/05 06:09:10;;;;;;;1999.90;999.90;;;;;;;;;;5008486;28;20214;-67
2022/09/05 06:12:26;;;;;;;1999.90;999.90;;;;;;;;;;5008765;28;20224;-68
2022/09/05 06:15:26;;;;;;;1999.90;999.90;;;;;;;;;;5009163;28;20234;-68
2022/09/05 06:18:36;;;;;;;1999.90;999.90;;;;;;;;;;5010433;28;21219;-68
2022/09/05 06:21:42;;;;;;;1999.90;999.90;;;;;;;;;;5011677;28;20253;-67
2022/09/05 06:24:36;;;;;;;1999.90;999.90;;;;;;;;;;5000643;28;20203;-68
2022/09/05 06:27:32;;;;;;;1999.90;999.90;;;;;;;;;;5006226;28;20957;-68
2022/09/05 06:30:19;;;;;;;1999.90;999.90;;;;;;;;;;5009375;28;20275;-68
2022/09/05 06:33:08;;;;;;;1999.90;999.90;;;;;;;;;;5012270;28;20206;-68
2022/09/05 06:35:59;;;;;;;1999.90;999.90;;;;;;;;;;5012201;28;20248;-67
2022/09/05 06:38:54;;;;;;;1999.90;999.90;;;;;;;;;;5012016;28;20203;-68
2022/09/05 06:41:48;;;;;;;1999.90;999.90;;;;;;;;;;5003262;28;20203;-68
2022/09/05 06:44:58;;;;;;;1999.90;999.90;;;;;;;;;;5002228;28;20215;-68
2022/09/05 06:47:44;;;;;;;1999.90;999.90;;;;;;;;;;5011111;28;20406;-67
2022/09/05 06:50:33;;;;;;;1999.90;999.90;;;;;;;;;;5012555;28;20616;-67
2022/09/05 06:53:33;;;;;;;1999.90;999.90;;;;;;;;;;5012401;28;20222;-68
2022/09/05 06:56:24;;;;;;;1999.90;999.90;;;;;;;;;;4998905;28;20247;-67
2022/09/05 06:59:28;;;;;;;1999.90;999.90;;;;;;;;;;5001924;28;20213;-67
2022/09/05 07:02:18;;;;;;;1999.90;999.90;;;;;;;;;;5012605;28;20208;-69
2022/09/05 07:05:08;;;;;;;1999.90;999.90;;;;;;;;;;4993592;28;20208;-68
2022/09/05 07:07:55;;;;;;;1999.90;999.90;;;;;;;;;;4993901;28;20235;-67
2022/09/05 07:10:44;;;;;;;1999.90;999.90;;;;;;;;;;4993994;28;20207;-68
2022/09/05 07:13:33;;;;;;;1999.90;999.90;;;;;;;;;;4996421;28;20222;-67
2022/09/05 07:16:18;;;;;;;1999.90;999.90;;;;;;;;;;5004089;28;20622;-68
2022/09/05 07:19:09;;;;;;;1999.90;999.90;;;;;;;;;;4993980;28;20215;-68
2022/09/05 07:22:03;;;;;;;1999.90;999.90;;;;;;;;;;4993676;28;20206;-67
2022/09/05 07:24:49;;;;;;;1999.90;999.90;;;;;;;;;;5007026;28;20409;-68
2022/09/05 07:27:36;;;;;;;1999.90;999.90;;;;;;;;;;5011621;28;20309;-67
2022/09/05 07:30:22;;;;;;;1999.90;999.90;;;;;;;;;;5011518;28;20326;-68
2022/09/05 07:33:08;;;;;;;1999.90;999.90;;;;;;;;;;5005525;28;20230;-67
2022/09/05 07:35:55;;;;;;;1999.90;999.90;;;;;;;;;;4992978;28;20229;-68
2022/09/05 07:38:42;;;;;;;1999.90;999.90;;;;;;;;;;4993481;28;20705;-68
2022/09/05 07:41:28;;;;;;;1999.90;999.90;;;;;;;;;;4993354;28;20204;-68
2022/09/05 07:44:16;;;;;;;1999.90;999.90;;;;;;;;;;4993391;28;20206;-67
2022/09/05 07:47:05;;;;;;;1999.90;999.90;;;;;;;;;;5008775;28;20520;-66
2022/09/05 07:49:52;;;;;;;1999.90;999.90;;;;;;;;;;4993106;28;20790;-68
2022/09/05 07:52:38;;;;;;;1999.90;999.90;;;;;;;;;;4993146;28;20705;-68
2022/09/05 07:55:26;;;;;;;1999.90;999.90;;;;;;;;;;4996390;28;20230;-69
2022/09/05 07:58:13;;;;;;;1999.90;999.90;;;;;;;;;;5006160;28;20210;-69
2022/09/05 08:00:59;;;;;;;1999.90;999.90;;;;;;;;;;5002091;28;20295;-68
2022/09/05 08:03:54;;;;;;;1999.90;999.90;;;;;;;;;;5007938;28;20242;-69
2022/09/05 08:06:39;;;;;;;1999.90;999.90;;;;;;;;;;5005598;28;20290;-67
2022/09/05 08:09:26;;;;;;;1999.90;999.90;;;;;;;;;;5011185;28;20214;-67
2022/09/05 08:12:14;;;;;;;1999.90;999.90;;;;;;;;;;4998318;28;20242;-67
2022/09/05 08:15:02;;;;;;;1999.90;999.90;;;;;;;;;;4992276;28;20309;-66
2022/09/05 08:17:52;;;;;;;1999.90;999.90;;;;;;;;;;5003642;28;20234;-67
2022/09/05 08:20:42;;;;;;;1999.90;999.90;;;;;;;;;;5002208;28;20202;-67
2022/09/05 08:23:39;;;;;;;1999.90;999.90;;;;;;;;;;5001026;28;20602;-66
2022/09/05 08:26:30;;;;;;;1999.90;999.90;;;;;;;;;;5008173;28;20238;-67
2022/09/05 08:29:22;;;;;;;1999.90;999.90;;;;;;;;;;5002419;28;20338;-66
2022/09/05 08:32:09;;;;;;;1999.90;999.90;;;;;;;;;;4993195;28;20211;-66
2022/09/05 08:34:56;;;;;;;1999.90;999.90;;;;;;;;;;4992435;28;20266;-66
2022/09/05 08:37:43;;;;;;;1999.90;999.90;;;;;;;;;;5007731;28;20277;-66
2022/09/05 08:40:30;;;;;;;1999.90;999.90;;;;;;;;;;4992974;28;20359;-68
2022/09/05 08:43:23;;;;;;;1999.90;999.90;;;;;;;;;;4993516;28;20207;-69
2022/09/05 08:46:13;;;;;;;1999.90;999.90;;;;;;;;;;5010787;28;20721;-68
2022/09/05 08:49:12;;;;;;;1999.90;999.90;;;;;;;;;;5012511;28;20701;-68
2022/09/05 08:52:04;;;;;;;1999.90;999.90;;;;;;;;;;5012336;28;20242;-68
2022/09/05 08:54:56;;;;;;;1999.90;999.90;;;;;;;;;;5011931;28;20229;-67
2022/09/05 08:58:06;;;;;;;1999.90;999.90;;;;;;;;;;5010070;28;20234;-68
2022/09/05 09:00:54;;;;;;;1999.90;999.90;;;;;;;;;;4999747;28;20588;-69
2022/09/05 09:03:49;;;;;;;1999.90;999.90;;;;;;;;;;5007044;28;20281;-70
2022/09/05 09:06:51;;;;;;;1999.90;999.90;;;;;;;;;;5011911;28;20226;-67
2022/09/05 09:09:41;;;;;;;1999.90;999.90;;;;;;;;;;5010982;28;20230;-68
2022/09/05 09:25:47;;;;;;;1999.90;999.90;;;;;;;;;;5118098;27;20582;-66
2022/09/05 09:28:39;;;;;;;1999.90;999.90;;;;;;;;;;5103972;28;20680;-68
2022/09/05 09:31:31;;;;;;;1999.90;999.90;;;;;;;;;;5096880;28;20722;-68
2022/09/05 09:34:33;;;;;;;1999.90;999.90;;;;;;;;;;5093155;28;20231;-65
2022/09/05 09:37:35;;;;;;;1999.90;999.90;;;;;;;;;;5094671;28;20270;-67
2022/09/05 09:40:24;;;;;;;1999.90;999.90;;;;;;;;;;5092921;28;20542;-66
2022/09/05 09:43:17;;;;;;;1999.90;999.90;;;;;;;;;;5095009;28;20265;-67
2022/09/05 09:46:16;;;;;;;1999.90;999.90;;;;;;;;;;5090735;28;20242;-68
2022/09/05 09:49:10;;;;;;;1999.90;999.90;;;;;;;;;;5100047;28;20207;-67
2022/09/05 09:52:04;;;;;;;1999.90;999.90;;;;;;;;;;5098824;28;20207;-68
2022/09/05 09:55:28;;;;;;;1999.90;999.90;;;;;;;;;;5104184;28;20308;-67
2022/09/05 09:58:27;;;;;;;1999.90;999.90;;;;;;;;;;5102082;28;20424;-67
2022/09/05 10:01:21;;;;;;;1999.90;999.90;;;;;;;;;;5107007;28;20872;-67
2022/09/05 10:04:21;;;;;;;1999.90;999.90;;;;;;;;;;5104254;28;20673;-67
2022/09/05 10:07:21;;;;;;;1999.90;999.90;;;;;;;;;;5101633;28;20680;-66
2022/09/05 10:10:15;;;;;;;1999.90;999.90;;;;;;;;;;5105260;28;20203;-67
2022/09/05 10:13:19;;;;;;;1999.90;999.90;;;;;;;;;;5095746;28;20212;-69
2022/09/05 10:16:26;;;;;;;1999.90;999.90;;;;;;;;;;5100883;28;20614;-68
2022/09/05 10:19:26;;;;;;;1999.90;999.90;;;;;;;;;;5101639;28;21044;-67
2022/09/05 10:22:26;;;;;;;1999.90;999.90;;;;;;;;;;5100220;28;20730;-69
2022/09/05 10:25:27;;;;;;;1999.90;999.90;;;;;;;;;;5117088;27;20212;-70
2022/09/05 10:28:20;;;;;;;1999.90;999.90;;;;;;;;;;5102606;28;20645;-67
2022/09/05 10:31:12;;;;;;;1999.90;999.90;;;;;;;;;;5110718;28;20203;-68
2022/09/05 10:34:01;;;;;;;1999.90;999.90;;;;;;;;;;5105410;28;20215;-68
2022/09/05 10:36:49;;;;;;;1999.90;999.90;;;;;;;;;;5107822;28;20232;-69
2022/09/05 10:39:37;;;;;;;1999.90;999.90;;;;;;;;;;5109777;28;20215;-69
2022/09/05 10:42:25;;;;;;;1999.90;999.90;;;;;;;;;;5094839;28;20429;-68
2022/09/05 10:45:14;;;;;;;1999.90;999.90;;;;;;;;;;5096423;28;20490;-68
2022/09/05 10:48:06;;;;;;;1999.90;999.90;;;;;;;;;;5098615;28;20208;-69
2022/09/05 10:50:56;;;;;;;1999.90;999.90;;;;;;;;;;5101656;28;20210;-66
2022/09/05 10:53:43;;;;;;;1999.90;999.90;;;;;;;;;;5098441;28;20708;-67
2022/09/05 10:56:31;;;;;;;1999.90;999.90;;;;;;;;;;5109989;28;20296;-67
2022/09/05 10:59:19;;;;;;;1999.90;999.90;;;;;;;;;;5099441;28;20222;-69
2022/09/05 11:02:06;;;;;;;1999.90;999.90;;;;;;;;;;5104826;28;20227;-68
2022/09/05 11:04:57;;;;;;;1999.90;999.90;;;;;;;;;;5095883;28;20561;-68
2022/09/05 11:07:49;;;;;;;1999.90;999.90;;;;;;;;;;5099441;28;20231;-68
2022/09/05 11:10:35;;;;;;;1999.90;999.90;;;;;;;;;;5108997;28;20716;-68
2022/09/05 11:13:28;;;;;;;1999.90;999.90;;;;;;;;;;5095422;28;20467;-65
2022/09/05 11:16:20;;;;;;;1999.90;999.90;;;;;;;;;;5098396;28;20229;-67
2022/09/05 11:19:07;;;;;;;1999.90;999.90;;;;;;;;;;5100211;28;20209;-67
2022/09/05 11:21:56;;;;;;;1999.90;999.90;;;;;;;;;;5099167;28;20239;-67
2022/09/05 11:24:46;;;;;;;1999.90;999.90;;;;;;;;;;5094452;28;20894;-69
2022/09/05 11:27:34;;;;;;;1999.90;999.90;;;;;;;;;;5094141;28;20220;-69
2022/09/05 11:30:20;;;;;;;1999.90;999.90;;;;;;;;;;5099491;28;20531;-68
2022/09/05 11:33:14;;;;;;;1999.90;999.90;;;;;;;;;;5095603;28;20947;-68
2022/09/05 11:36:00;;;;;;;1999.90;999.90;;;;;;;;;;5096469;28;20671;-66
2022/09/05 11:38:52;;;;;;;1999.90;999.90;;;;;;;;;;5098441;28;20831;-68
2022/09/05 11:41:52;;;;;;;1999.90;999.90;;;;;;;;;;5105461;28;20207;-67
2022/09/05 11:44:47;;;;;;;1999.90;999.90;;;;;;;;;;5105665;28;20195;-66
2022/09/05 11:47:44;;;;;;;1999.90;999.90;;;;;;;;;;5109801;28;20724;-68
2022/09/05 11:50:45;;;;;;;1999.90;999.90;;;;;;;;;;5111152;28;20337;-68
2022/09/05 11:53:57;;;;;;;1999.90;999.90;;;;;;;;;;5106768;28;20199;-67
2022/09/05 11:56:56;;;;;;;1999.90;999.90;;;;;;;;;;5106036;28;20719;-68
2022/09/05 11:59:56;;;;;;;1999.90;999.90;;;;;;;;;;5101729;28;20203;-65
2022/09/05 12:02:59;;;;;;;1999.90;999.90;;;;;;;;;;5095806;28;20219;-68
2022/09/05 12:05:58;;;;;;;1999.90;999.90;;;;;;;;;;5104704;28;20203;-65
2022/09/05 12:08:49;;;;;;;1999.90;999.90;;;;;;;;;;5089251;28;20289;-67
2022/09/05 12:11:42;;;;;;;1999.90;999.90;;;;;;;;;;5089110;28;20689;-66
2022/09/05 12:14:37;;;;;;;1999.90;999.90;;;;;;;;;;5071265;28;20301;-67
2022/09/05 12:17:27;;;;;;;1999.90;999.90;;;;;;;;;;5090680;28;20274;-67
2022/09/05 12:20:14;;;;;;;1999.90;999.90;;;;;;;;;;5083952;28;20205;-66
2022/09/05 12:23:02;;;;;;;1999.90;999.90;;;;;;;;;;5071640;28;20197;-65
2022/09/05 12:25:51;;;;;;;1999.90;999.90;;;;;;;;;;5071232;28;20770;-67
2022/09/05 12:28:40;;;;;;;1999.90;999.90;;;;;;;;;;5072068;28;20204;-68
2022/09/05 12:31:27;;;;;;;1999.90;999.90;;;;;;;;;;5073677;28;20200;-67
2022/09/05 12:34:17;;;;;;;1999.90;999.90;;;;;;;;;;5090397;28;20429;-66
2022/09/05 12:37:02;;;;;;;1999.90;999.90;;;;;;;;;;5085661;28;20596;-68
2022/09/05 12:39:52;;;;;;;1999.90;999.90;;;;;;;;;;5083810;28;20216;-68
2022/09/05 12:42:42;;;;;;;1999.90;999.90;;;;;;;;;;5079330;28;20307;-67
2022/09/05 12:45:32;;;;;;;1999.90;999.90;;;;;;;;;;5082764;28;20212;-68
2022/09/05 12:48:20;;;;;;;1999.90;999.90;;;;;;;;;;5084259;28;20592;-67
2022/09/05 12:51:09;;;;;;;1999.90;999.90;;;;;;;;;;5077172;28;20234;-66
2022/09/05 12:53:56;;;;;;;1999.90;999.90;;;;;;;;;;5074266;28;20713;-68
2022/09/05 12:56:49;;;;;;;1999.90;999.90;;;;;;;;;;5070848;28;20306;-67
2022/09/05 12:59:35;;;;;;;1999.90;999.90;;;;;;;;;;5071018;28;20209;-67
2022/09/05 13:02:23;;;;;;;1999.90;999.90;;;;;;;;;;5086782;28;20575;-67
2022/09/05 13:05:11;;;;;;;1999.90;999.90;;;;;;;;;;5072267;28;20743;-66
2022/09/05 13:07:58;;;;;;;1999.90;999.90;;;;;;;;;;5089457;28;20216;-66
2022/09/05 13:10:44;;;;;;;1999.90;999.90;;;;;;;;;;5109298;28;20215;-67
2022/09/05 13:13:31;;;;;;;1999.90;999.90;;;;;;;;;;5092754;28;20216;-67
2022/09/05 13:16:19;;;;;;;1999.90;999.90;;;;;;;;;;5084128;28;20231;-68
2022/09/05 13:19:06;;;;;;;1999.90;999.90;;;;;;;;;;5089687;28;20293;-67
2022/09/05 13:21:54;;;;;;;1999.90;999.90;;;;;;;;;;5080327;28;20694;-66
2022/09/05 13:24:41;;;;;;;1999.90;999.90;;;;;;;;;;5087330;28;20692;-67
2022/09/05 13:27:29;;;;;;;1999.90;999.90;;;;;;;;;;5089591;28;20265;-67
2022/09/05 13:30:14;;;;;;;1999.90;999.90;;;;;;;;;;5089968;28;20208;-66
2022/09/05 13:33:01;;;;;;;1999.90;999.90;;;;;;;;;;5070230;28;20461;-65
2022/09/05 13:35:52;;;;;;;1999.90;999.90;;;;;;;;;;5070133;28;20355;-67
2022/09/05 13:38:50;;;;;;;1999.90;999.90;;;;;;;;;;5074997;28;20201;-66
2022/09/05 13:41:42;;;;;;;1999.90;999.90;;;;;;;;;;5071162;28;20351;-67
2022/09/05 13:44:28;;;;;;;1999.90;999.90;;;;;;;;;;5084323;28;20665;-67
2022/09/05 13:47:19;;;;;;;1999.90;999.90;;;;;;;;;;5089433;28;20224;-67
2022/09/05 13:50:16;;;;;;;1999.90;999.90;;;;;;;;;;5091455;28;20204;-67
2022/09/05 13:53:03;;;;;;;1999.90;999.90;;;;;;;;;;5085695;28;20204;-67
2022/09/05 13:55:51;;;;;;;1999.90;999.90;;;;;;;;;;5090915;28;20230;-66
2022/09/05 13:58:41;;;;;;;1999.90;999.90;;;;;;;;;;5089307;28;20212;-67
2022/09/05 14:01:41;;;;;;;1999.90;999.90;;;;;;;;;;5074040;28;20228;-67
2022/09/05 14:04:34;;;;;;;1999.90;999.90;;;;;;;;;;5078738;28;20247;-67
2022/09/05 14:07:37;;;;;;;1999.90;999.90;;;;;;;;;;5074730;28;20220;-67
2022/09/05 14:10:31;;;;;;;1999.90;999.90;;;;;;;;;;5081871;28;20196;-66
2022/09/05 14:13:18;;;;;;;1999.90;999.90;;;;;;;;;;5074284;28;20208;-67
2022/09/05 14:16:07;;;;;;;1999.90;999.90;;;;;;;;;;5073534;28;20232;-66
2022/09/05 14:22:00;;;;;;;1999.90;999.90;;;;;;;;;;5075089;28;20713;-65
2022/09/05 14:24:47;;;;;;;1999.90;999.90;;;;;;;;;;5090047;28;20224;-66
2022/09/05 14:27:33;;;;;;;1999.90;999.90;;;;;;;;;;5074510;28;20753;-67
2022/09/05 14:30:33;;;;;;;1999.90;999.90;;;;;;;;;;5074645;28;20200;-67
2022/09/05 14:33:29;;;;;;;1999.90;999.90;;;;;;;;;;5074014;28;20861;-68
2022/09/05 14:36:24;;;;;;;1999.90;999.90;;;;;;;;;;5073901;28;20229;-67
2022/09/05 14:39:41;;;;;;;1999.90;999.90;;;;;;;;;;5074535;28;20239;-68
2022/09/05 14:42:47;;;;;;;1999.90;999.90;;;;;;;;;;5074385;28;20208;-67
2022/09/05 14:45:41;;;;;;;1999.90;999.90;;;;;;;;;;5074102;28;20208;-67
2022/09/05 14:48:44;;;;;;;1999.90;999.90;;;;;;;;;;5074301;28;20637;-67
2022/09/05 14:51:40;;;;;;;1999.90;999.90;;;;;;;;;;5074007;28;20331;-66
2022/09/05 14:54:26;;;;;;;1999.90;999.90;;;;;;;;;;5073798;28;20327;-67
2022/09/05 14:57:15;;;;;;;1999.90;999.90;;;;;;;;;;5074080;28;20231;-67
2022/09/05 15:00:01;;;;;;;1999.90;999.90;;;;;;;;;;5074141;28;20225;-66
2022/09/05 15:02:48;;;;;;;1999.90;999.90;;;;;;;;;;5078243;28;20701;-66
2022/09/05 15:05:38;;;;;;;1999.90;999.90;;;;;;;;;;5073708;28;20298;-66
2022/09/05 15:08:26;;;;;;;1999.90;999.90;;;;;;;;;;5072949;28;20281;-66
2022/09/05 15:11:13;;;;;;;1999.90;999.90;;;;;;;;;;5089639;28;20211;-67
2022/09/05 15:14:02;;;;;;;1999.90;999.90;;;;;;;;;;5093718;28;20627;-68
2022/09/05 15:16:56;;;;;;;1999.90;999.90;;;;;;;;;;5086757;28;20348;-66
2022/09/05 15:19:46;;;;;;;1999.90;999.90;;;;;;;;;;5081806;28;20247;-66
2022/09/05 15:22:33;;;;;;;1999.90;999.90;;;;;;;;;;5082169;28;20204;-66
2022/09/05 15:25:20;;;;;;;1999.90;999.90;;;;;;;;;;5076766;28;20211;-67
2022/09/05 15:28:06;;;;;;;1999.90;999.90;;;;;;;;;;5093610;28;20282;-67
2022/09/05 15:30:56;;;;;;;1999.90;999.90;;;;;;;;;;5093376;28;20204;-66
2022/09/05 15:33:42;;;;;;;1999.90;999.90;;;;;;;;;;5091958;28;20429;-67
2022/09/05 15:36:30;;;;;;;1999.90;999.90;;;;;;;;;;5090163;28;20332;-66
2022/09/05 15:39:21;;;;;;;1999.90;999.90;;;;;;;;;;5093591;28;20211;-68
2022/09/05 15:42:12;;;;;;;1999.90;999.90;;;;;;;;;;5093481;28;20212;-66
2022/09/05 15:44:59;;;;;;;1999.90;999.90;;;;;;;;;;5093193;28;20234;-68
2022/09/05 15:47:45;;;;;;;1999.90;999.90;;;;;;;;;;5093448;28;20342;-66
2022/09/05 15:50:37;;;;;;;1999.90;999.90;;;;;;;;;;5093453;28;20204;-66
2022/09/05 15:53:24;;;;;;;1999.90;999.90;;;;;;;;;;5081129;28;20279;-68
2022/09/05 15:56:19;;;;;;;1999.90;999.90;;;;;;;;;;5072352;28;20232;-66
2022/09/05 15:59:05;;;;;;;1999.90;999.90;;;;;;;;;;5072828;28;20205;-67
2022/09/05 16:01:50;;;;;;;1999.90;999.90;;;;;;;;;;5072852;28;20695;-68
2022/09/05 16:04:36;;;;;;;1999.90;999.90;;;;;;;;;;5072491;28;20271;-66
2022/09/05 16:07:24;;;;;;;1999.90;999.90;;;;;;;;;;5073996;28;20224;-70
2022/09/05 16:10:14;;;;;;;1999.90;999.90;;;;;;;;;;5073786;28;20220;-67
2022/09/05 16:13:08;;;;;;;1999.90;999.90;;;;;;;;;;5073585;28;20196;-68
2022/09/05 16:15:53;;;;;;;1999.90;999.90;;;;;;;;;;5073115;28;20355;-67
2022/09/05 16:18:40;;;;;;;1999.90;999.90;;;;;;;;;;5073040;28;20209;-66
2022/09/05 16:21:27;;;;;;;1999.90;999.90;;;;;;;;;;5072250;28;20570;-68
2022/09/05 16:24:15;;;;;;;1999.90;999.90;;;;;;;;;;5071560;28;20208;-67
2022/09/05 16:27:01;;;;;;;1999.90;999.90;;;;;;;;;;5072202;28;20228;-67
2022/09/05 16:29:49;;;;;;;1999.90;999.90;;;;;;;;;;5083143;28;20212;-68
2022/09/05 16:32:36;;;;;;;1999.90;999.90;;;;;;;;;;5091568;28;20773;-68
2022/09/05 16:35:21;;;;;;;1999.90;999.90;;;;;;;;;;5091996;28;20588;-68
2022/09/05 16:38:09;;;;;;;1999.90;999.90;;;;;;;;;;5091647;28;20278;-66
2022/09/05 16:40:56;;;;;;;1999.90;999.90;;;;;;;;;;5078833;28;20204;-67
2022/09/05 16:43:43;;;;;;;1999.90;999.90;;;;;;;;;;5071568;28;20212;-67
2022/09/05 16:46:34;;;;;;;1999.90;999.90;;;;;;;;;;5073268;28;20252;-68
2022/09/05 16:49:23;;;;;;;1999.90;999.90;;;;;;;;;;5071362;28;20756;-69
2022/09/05 16:52:09;;;;;;;1999.90;999.90;;;;;;;;;;5086374;28;20211;-66
2022/09/05 16:54:58;;;;;;;1999.90;999.90;;;;;;;;;;5085728;28;20315;-68
2022/09/05 16:57:56;;;;;;;1999.90;999.90;;;;;;;;;;5071919;28;20240;-69
2022/09/05 17:00:57;;;;;;;1999.90;999.90;;;;;;;;;;5082400;28;20228;-67
2022/09/05 17:03:48;;;;;;;1999.90;999.90;;;;;;;;;;5078576;28;20200;-67
2022/09/05 17:06:36;;;;;;;1999.90;999.90;;;;;;;;;;5084241;28;20336;-67
2022/09/05 17:09:23;;;;;;;1999.90;999.90;;;;;;;;;;5088605;28;20855;-66
2022/09/05 17:12:10;;;;;;;1999.90;999.90;;;;;;;;;;5090015;28;20731;-68
2022/09/05 17:14:59;;;;;;;1999.90;999.90;;;;;;;;;;5089665;28;20848;-68
2022/09/05 17:17:55;;;;;;;1999.90;999.90;;;;;;;;;;5073456;28;20217;-67
2022/09/05 17:20:43;;;;;;;1999.90;999.90;;;;;;;;;;5081874;28;20200;-68
2022/09/05 17:23:29;;;;;;;1999.90;999.90;;;;;;;;;;5083446;28;20705;-67
2022/09/05 17:26:23;;;;;;;1999.90;999.90;;;;;;;;;;5089499;28;20220;-66
2022/09/05 17:29:11;;;;;;;1999.90;999.90;;;;;;;;;;5090434;28;20572;-66
2022/09/05 17:31:57;;;;;;;1999.90;999.90;;;;;;;;;;5091734;28;20409;-66
2022/09/05 17:34:48;;;;;;;1999.90;999.90;;;;;;;;;;5086586;28;20207;-66
2022/09/05 17:37:43;;;;;;;1999.90;999.90;;;;;;;;;;5084730;28;20243;-66
2022/09/05 17:40:40;;;;;;;1999.90;999.90;;;;;;;;;;5085940;28;20746;-66
2022/09/05 17:43:27;;;;;;;1999.90;999.90;;;;;;;;;;5093912;28;20586;-66
2022/09/05 17:46:15;;;;;;;1999.90;999.90;;;;;;;;;;5090403;28;20227;-66
2022/09/05 17:49:02;;;;;;;1999.90;999.90;;;;;;;;;;5079899;28;20212;-66
2022/09/05 17:52:21;;;;;;;1999.90;999.90;;;;;;;;;;5090619;28;20293;-66
2022/09/05 17:55:12;;;;;;;1999.90;999.90;;;;;;;;;;5090590;28;20204;-67
2022/09/05 17:58:16;;;;;;;1999.90;999.90;;;;;;;;;;5086555;28;20810;-67
2022/09/05 18:01:04;;;;;;;1999.90;999.90;;;;;;;;;;5083994;28;20760;-67
2022/09/05 18:03:57;;;;;;;1999.90;999.90;;;;;;;;;;5091116;28;20208;-67
2022/09/05 18:06:44;;;;;;;1999.90;999.90;;;;;;;;;;5090113;28;20231;-68
2022/09/05 18:09:55;;;;;;;1999.90;999.90;;;;;;;;;;5091293;28;20196;-67
2022/09/05 18:12:43;;;;;;;1999.90;999.90;;;;;;;;;;5085449;28;20208;-67
2022/09/05 18:15:42;;;;;;;1999.90;999.90;;;;;;;;;;5087650;28;20216;-67
2022/09/05 18:18:33;;;;;;;1999.90;999.90;;;;;;;;;;5090830;28;20212;-68
2022/09/05 18:21:19;;;;;;;1999.90;999.90;;;;;;;;;;5092654;28;20299;-67
2022/09/05 18:24:05;;;;;;;1999.90;999.90;;;;;;;;;;5093856;28;20327;-67
2022/09/05 18:26:51;;;;;;;1999.90;999.90;;;;;;;;;;5092607;28;20238;-65
2022/09/05 18:29:40;;;;;;;1999.90;999.90;;;;;;;;;;5089200;28;20203;-66
2022/09/05 18:32:38;;;;;;;1999.90;999.90;;;;;;;;;;5072928;28;20431;-66
2022/09/05 18:35:24;;;;;;;1999.90;999.90;;;;;;;;;;5080318;28;20306;-66
2022/09/05 18:38:24;;;;;;;1999.90;999.90;;;;;;;;;;5086407;28;20617;-67
2022/09/05 18:41:11;;;;;;;1999.90;999.90;;;;;;;;;;5092040;28;20222;-65
2022/09/05 18:43:59;;;;;;;1999.90;999.90;;;;;;;;;;5094459;28;20326;-66
2022/09/05 18:46:47;;;;;;;1999.90;999.90;;;;;;;;;;5088189;28;20228;-67
2022/09/05 18:49:33;;;;;;;1999.90;999.90;;;;;;;;;;5087329;28;20208;-66
2022/09/05 18:52:20;;;;;;;1999.90;999.90;;;;;;;;;;5081050;28;20701;-66
2022/09/05 18:55:10;;;;;;;1999.90;999.90;;;;;;;;;;5093869;28;20203;-66
2022/09/05 18:57:57;;;;;;;1999.90;999.90;;;;;;;;;;5081950;28;20274;-67
2022/09/05 19:00:44;;;;;;;1999.90;999.90;;;;;;;;;;5088587;28;20227;-67
2022/09/05 19:03:32;;;;;;;1999.90;999.90;;;;;;;;;;5088257;28;20254;-67
2022/09/05 19:06:20;;;;;;;1999.90;999.90;;;;;;;;;;5082892;28;20219;-67
2022/09/05 19:09:06;;;;;;;1999.90;999.90;;;;;;;;;;5092007;28;20406;-66
2022/09/05 19:11:56;;;;;;;1999.90;999.90;;;;;;;;;;5085799;28;20347;-65
2022/09/05 19:14:46;;;;;;;1999.90;999.90;;;;;;;;;;5089275;28;20220;-66
2022/09/05 19:17:33;;;;;;;1999.90;999.90;;;;;;;;;;5080700;28;20754;-66
2022/09/05 19:20:21;;;;;;;1999.90;999.90;;;;;;;;;;5085574;28;20246;-66
2022/09/05 19:23:07;;;;;;;1999.90;999.90;;;;;;;;;;5084690;28;20343;-66
2022/09/05 19:25:53;;;;;;;1999.90;999.90;;;;;;;;;;5089612;28;20265;-66
2022/09/05 19:28:38;;;;;;;1999.90;999.90;;;;;;;;;;5093831;28;20199;-67
2022/09/05 19:31:25;;;;;;;1999.90;999.90;;;;;;;;;;5072081;28;20395;-66
2022/09/05 19:34:11;;;;;;;1999.90;999.90;;;;;;;;;;5075902;28;20212;-66
2022/09/05 19:36:58;;;;;;;1999.90;999.90;;;;;;;;;;5088004;28;20235;-67
2022/09/05 19:39:46;;;;;;;1999.90;999.90;;;;;;;;;;5085464;28;20222;-67
2022/09/05 19:42:31;;;;;;;1999.90;999.90;;;;;;;;;;5090758;28;20203;-66
2022/09/05 19:45:23;;;;;;;1999.90;999.90;;;;;;;;;;5093175;28;20613;-66
2022/09/05 19:48:19;;;;;;;1999.90;999.90;;;;;;;;;;5093285;28;20293;-67
2022/09/05 19:51:09;;;;;;;1999.90;999.90;;;;;;;;;;5093243;28;20204;-66
2022/09/05 19:53:56;;;;;;;1999.90;999.90;;;;;;;;;;5093283;28;20752;-66
2022/09/05 19:56:43;;;;;;;1999.90;999.90;;;;;;;;;;5092846;28;20223;-66